Terminal Aerodrome Forecast
Issued by NWS Green Bay, WI

Home | Current Version | Previous Version | Graphics & Text | Print | Product List | Glossary On
Versions: 1 2 3 4 5 6 7 8 9 10 11 12 13 14 15 16 17 18 19 20 21 22 23 24 25 26 27 28 29 30
199
FTUS43 KGRB 242354 AAA
TAFGRB
TAF AMD
KGRB 242354Z 2500/2524 04012G20KT P6SM BKN120
     FM250100 03010G20KT P6SM VCSH SCT050 BKN080
     FM250600 01009KT P6SM SCT080
     FM251300 36010G17KT P6SM SCT035=

USA.gov is the U.S. government's official web portal to all federal, state and local government web resources and services.